sensor_id;sensor_type;location;lat;lon;timestamp;pressure;altitude;pressure_sealevel;temperature;humidity
46456;BME280;32154;47.160;8.120;2022-07-29T00:03:04;95741.56;;;21.98;67.58
46456;BME280;32154;47.160;8.120;2022-07-29T00:08:31;95741.56;;;21.98;67.70
46456;BME280;32154;47.160;8.120;2022-07-29T00:13:52;95750.22;;;21.80;67.90
46456;BME280;32154;47.160;8.120;2022-07-29T00:18:55;95747.53;;;21.80;69.47
46456;BME280;32154;47.160;8.120;2022-07-29T00:24:21;95746.28;;;21.76;68.33
46456;BME280;32154;47.160;8.120;2022-07-29T00:29:23;95735.97;;;21.86;69.00
46456;BME280;32154;47.160;8.120;2022-07-29T00:34:35;95721.50;;;21.87;68.69
46456;BME280;32154;47.160;8.120;2022-07-29T00:39:37;95719.06;;;21.93;68.48
46456;BME280;32154;47.160;8.120;2022-07-29T00:44:41;95718.22;;;21.79;67.53
46456;BME280;32154;47.160;8.120;2022-07-29T00:49:43;95714.50;;;21.73;68.08
46456;BME280;32154;47.160;8.120;2022-07-29T00:54:48;95721.03;;;21.57;67.52
46456;BME280;32154;47.160;8.120;2022-07-29T00:59:50;95726.41;;;21.57;67.64
46456;BME280;32154;47.160;8.120;2022-07-29T01:04:53;95720.22;;;21.63;68.51
46456;BME280;32154;47.160;8.120;2022-07-29T01:09:55;95718.81;;;21.81;67.79
46456;BME280;32154;47.160;8.120;2022-07-29T01:15:00;95707.66;;;21.70;67.45
46456;BME280;32154;47.160;8.120;2022-07-29T01:25:48;95707.84;;;21.55;67.17
46456;BME280;32154;47.160;8.120;2022-07-29T01:30:58;95705.34;;;21.47;67.60
46456;BME280;32154;47.160;8.120;2022-07-29T01:36:07;95698.69;;;21.29;67.94
46456;BME280;32154;47.160;8.120;2022-07-29T01:41:15;95696.63;;;21.18;66.58
46456;BME280;32154;47.160;8.120;2022-07-29T01:46:23;95696.94;;;20.95;68.69
46456;BME280;32154;47.160;8.120;2022-07-29T01:51:57;95709.50;;;20.87;69.67
46456;BME280;32154;47.160;8.120;2022-07-29T01:57:08;95719.72;;;20.42;70.84
46456;BME280;32154;47.160;8.120;2022-07-29T02:02:13;95719.91;;;20.12;72.00
46456;BME280;32154;47.160;8.120;2022-07-29T02:07:21;95714.91;;;20.02;72.05
46456;BME280;32154;47.160;8.120;2022-07-29T02:12:28;95706.84;;;20.59;70.30
46456;BME280;32154;47.160;8.120;2022-07-29T02:17:34;95701.84;;;20.84;68.66
46456;BME280;32154;47.160;8.120;2022-07-29T02:22:43;95695.88;;;20.89;68.31
46456;BME280;32154;47.160;8.120;2022-07-29T02:27:47;95691.16;;;20.98;67.76
46456;BME280;32154;47.160;8.120;2022-07-29T02:32:51;95700.72;;;21.20;68.28
46456;BME280;32154;47.160;8.120;2022-07-29T02:38:16;95705.44;;;21.05;68.24
46456;BME280;32154;47.160;8.120;2022-07-29T02:43:37;95702.78;;;21.12;68.00
46456;BME280;32154;47.160;8.120;2022-07-29T02:48:47;95707.25;;;20.98;67.96
46456;BME280;32154;47.160;8.120;2022-07-29T02:53:53;95724.19;;;20.70;69.49
46456;BME280;32154;47.160;8.120;2022-07-29T02:59:01;95727.94;;;20.40;70.86
46456;BME280;32154;47.160;8.120;2022-07-29T03:04:04;95730.09;;;20.58;70.47
46456;BME280;32154;47.160;8.120;2022-07-29T03:09:08;95723.03;;;20.44;71.10
46456;BME280;32154;47.160;8.120;2022-07-29T03:14:17;95724.59;;;20.67;69.91
46456;BME280;32154;47.160;8.120;2022-07-29T03:19:44;95716.09;;;20.91;67.73
46456;BME280;32154;47.160;8.120;2022-07-29T03:25:10;95711.81;;;20.33;71.71
46456;BME280;32154;47.160;8.120;2022-07-29T03:30:13;95746.00;;;20.31;72.64
46456;BME280;32154;47.160;8.120;2022-07-29T03:35:23;95718.34;;;19.96;74.60
46456;BME280;32154;47.160;8.120;2022-07-29T03:40:49;95727.88;;;20.33;73.45
46456;BME280;32154;47.160;8.120;2022-07-29T03:45:54;95748.88;;;20.30;75.07
46456;BME280;32154;47.160;8.120;2022-07-29T03:51:02;95748.28;;;20.34;73.75
46456;BME280;32154;47.160;8.120;2022-07-29T03:56:24;95753.81;;;20.61;71.45
46456;BME280;32154;47.160;8.120;2022-07-29T04:01:28;95731.38;;;20.62;70.27
46456;BME280;32154;47.160;8.120;2022-07-29T04:06:41;95712.13;;;20.17;72.41
46456;BME280;32154;47.160;8.120;2022-07-29T04:12:03;95662.50;;;20.14;74.77
46456;BME280;32154;47.160;8.120;2022-07-29T04:17:06;95663.91;;;20.10;74.70
46456;BME280;32154;47.160;8.120;2022-07-29T04:22:09;95689.50;;;20.19;73.51
46456;BME280;32154;47.160;8.120;2022-07-29T04:27:11;95710.09;;;20.19;74.07
46456;BME280;32154;47.160;8.120;2022-07-29T04:32:34;95696.16;;;20.30;73.95
46456;BME280;32154;47.160;8.120;2022-07-29T04:37:55;95702.66;;;20.49;74.49
46456;BME280;32154;47.160;8.120;2022-07-29T04:42:57;95714.91;;;20.66;74.12
46456;BME280;32154;47.160;8.120;2022-07-29T04:48:01;95700.84;;;20.99;73.27
46456;BME280;32154;47.160;8.120;2022-07-29T04:53:04;95705.44;;;21.05;71.90
46456;BME280;32154;47.160;8.120;2022-07-29T04:58:25;95709.38;;;21.16;71.96
46456;BME280;32154;47.160;8.120;2022-07-29T05:03:45;95711.44;;;21.20;73.18
46456;BME280;32154;47.160;8.120;2022-07-29T05:09:06;95711.56;;;20.99;74.04
46456;BME280;32154;47.160;8.120;2022-07-29T05:14:08;95708.16;;;21.25;73.38
46456;BME280;32154;47.160;8.120;2022-07-29T05:19:10;95710.63;;;21.20;75.65
46456;BME280;32154;47.160;8.120;2022-07-29T05:24:15;95721.00;;;21.37;73.16
46456;BME280;32154;47.160;8.120;2022-07-29T05:29:18;95730.50;;;21.46;73.23
46456;BME280;32154;47.160;8.120;2022-07-29T05:34:41;95738.78;;;21.65;73.27
46456;BME280;32154;47.160;8.120;2022-07-29T05:39:57;95742.50;;;21.57;73.63
46456;BME280;32154;47.160;8.120;2022-07-29T05:45:22;95746.94;;;21.23;74.02
46456;BME280;32154;47.160;8.120;2022-07-29T05:50:25;95762.59;;;21.12;74.29
46456;BME280;32154;47.160;8.120;2022-07-29T05:55:52;95809.22;;;20.83;74.82
46456;BME280;32154;47.160;8.120;2022-07-29T06:00:55;95808.91;;;20.71;74.77
46456;BME280;32154;47.160;8.120;2022-07-29T06:05:57;95831.22;;;20.78;76.20
46456;BME280;32154;47.160;8.120;2022-07-29T06:11:00;95836.63;;;19.91;77.21
46456;BME280;32154;47.160;8.120;2022-07-29T06:16:26;95824.53;;;19.95;75.92
46456;BME280;32154;47.160;8.120;2022-07-29T06:21:34;95817.16;;;20.69;75.88
46456;BME280;32154;47.160;8.120;2022-07-29T06:26:40;95794.47;;;20.72;76.36
46456;BME280;32154;47.160;8.120;2022-07-29T06:31:43;95820.16;;;20.88;75.62
46456;BME280;32154;47.160;8.120;2022-07-29T06:36:45;95830.19;;;20.79;76.07
46456;BME280;32154;47.160;8.120;2022-07-29T06:42:06;95832.31;;;20.84;77.10
46456;BME280;32154;47.160;8.120;2022-07-29T06:47:09;95820.59;;;20.91;76.55
46456;BME280;32154;47.160;8.120;2022-07-29T06:52:12;95801.50;;;21.08;75.30
46456;BME280;32154;47.160;8.120;2022-07-29T06:57:47;95783.69;;;21.29;74.81
46456;BME280;32154;47.160;8.120;2022-07-29T07:03:11;95800.41;;;21.38;75.79
46456;BME280;32154;47.160;8.120;2022-07-29T07:08:13;95812.03;;;21.52;74.62
46456;BME280;32154;47.160;8.120;2022-07-29T07:13:34;95817.81;;;21.48;74.73
46456;BME280;32154;47.160;8.120;2022-07-29T07:18:37;95822.25;;;21.76;73.68
46456;BME280;32154;47.160;8.120;2022-07-29T07:23:39;95851.25;;;21.59;75.12
46456;BME280;32154;47.160;8.120;2022-07-29T07:28:46;95850.00;;;22.11;74.47
46456;BME280;32154;47.160;8.120;2022-07-29T07:33:58;95839.75;;;21.72;75.11
46456;BME280;32154;47.160;8.120;2022-07-29T07:39:19;95847.63;;;21.81;74.65
46456;BME280;32154;47.160;8.120;2022-07-29T07:44:21;95842.31;;;22.08;73.25
46456;BME280;32154;47.160;8.120;2022-07-29T07:49:46;95826.66;;;22.38;73.80
46456;BME280;32154;47.160;8.120;2022-07-29T07:55:08;95827.44;;;23.06;71.48
46456;BME280;32154;47.160;8.120;2022-07-29T08:00:14;95827.00;;;23.36;69.61
46456;BME280;32154;47.160;8.120;2022-07-29T08:05:19;95828.34;;;23.98;66.30
46456;BME280;32154;47.160;8.120;2022-07-29T08:10:21;95822.50;;;24.14;64.00
46456;BME280;32154;47.160;8.120;2022-07-29T08:15:26;95823.63;;;24.76;65.75
46456;BME280;32154;47.160;8.120;2022-07-29T08:20:54;95832.66;;;25.14;62.99
46456;BME280;32154;47.160;8.120;2022-07-29T08:26:41;95831.19;;;24.93;63.96
46456;BME280;32154;47.160;8.120;2022-07-29T08:31:47;95843.78;;;24.74;67.25
46456;BME280;32154;47.160;8.120;2022-07-29T08:37:08;95836.75;;;24.98;63.55
46456;BME280;32154;47.160;8.120;2022-07-29T08:42:11;95837.28;;;24.56;60.89
46456;BME280;32154;47.160;8.120;2022-07-29T08:47:16;95834.88;;;24.73;56.62
46456;BME280;32154;47.160;8.120;2022-07-29T08:52:40;95841.69;;;24.82;59.45
46456;BME280;32154;47.160;8.120;2022-07-29T08:57:43;95823.00;;;24.81;59.98
46456;BME280;32154;47.160;8.120;2022-07-29T09:03:19;95828.41;;;24.81;57.45
46456;BME280;32154;47.160;8.120;2022-07-29T09:08:22;95840.38;;;24.60;57.95
46456;BME280;32154;47.160;8.120;2022-07-29T09:13:43;95840.03;;;25.00;58.79
46456;BME280;32154;47.160;8.120;2022-07-29T09:18:51;95842.00;;;25.11;60.17
46456;BME280;32154;47.160;8.120;2022-07-29T09:24:10;95834.44;;;26.07;62.54
46456;BME280;32154;47.160;8.120;2022-07-29T09:34:21;95830.00;;;26.55;56.87
46456;BME280;32154;47.160;8.120;2022-07-29T09:39:29;95831.31;;;27.24;51.40
46456;BME280;32154;47.160;8.120;2022-07-29T09:44:50;95826.28;;;28.27;53.54
46456;BME280;32154;47.160;8.120;2022-07-29T09:49:54;95820.69;;;29.41;45.87
46456;BME280;32154;47.160;8.120;2022-07-29T09:55:17;95822.03;;;28.02;54.02
46456;BME280;32154;47.160;8.120;2022-07-29T10:00:20;95817.06;;;28.11;48.69
46456;BME280;32154;47.160;8.120;2022-07-29T10:10:40;95819.72;;;29.48;51.00
46456;BME280;32154;47.160;8.120;2022-07-29T10:15:44;95817.47;;;28.83;46.61
46456;BME280;32154;47.160;8.120;2022-07-29T10:20:48;95808.72;;;28.98;49.09
46456;BME280;32154;47.160;8.120;2022-07-29T10:25:50;95821.69;;;28.27;49.11
46456;BME280;32154;47.160;8.120;2022-07-29T10:31:00;95823.25;;;28.23;49.96
46456;BME280;32154;47.160;8.120;2022-07-29T10:47:26;95803.06;;;27.20;45.55
46456;BME280;32154;47.160;8.120;2022-07-29T10:59:29;95789.28;;;27.33;47.98
46456;BME280;32154;47.160;8.120;2022-07-29T11:15:21;95808.66;;;28.12;41.78
46456;BME280;32154;47.160;8.120;2022-07-29T11:20:43;95814.28;;;28.23;46.50
46456;BME280;32154;47.160;8.120;2022-07-29T11:26:15;95807.44;;;27.74;44.92
46456;BME280;32154;47.160;8.120;2022-07-29T11:31:40;95801.09;;;27.97;45.60
46456;BME280;32154;47.160;8.120;2022-07-29T11:47:54;95804.03;;;27.96;42.56
46456;BME280;32154;47.160;8.120;2022-07-29T11:53:10;95814.84;;;27.78;48.07
46456;BME280;32154;47.160;8.120;2022-07-29T11:58:21;95817.84;;;27.53;50.78
46456;BME280;32154;47.160;8.120;2022-07-29T12:03:28;95826.56;;;27.43;50.95
46456;BME280;32154;47.160;8.120;2022-07-29T12:08:55;95827.41;;;27.32;49.91
46456;BME280;32154;47.160;8.120;2022-07-29T12:13:57;95833.78;;;27.26;49.41
46456;BME280;32154;47.160;8.120;2022-07-29T12:19:00;95834.03;;;27.00;51.13
46456;BME280;32154;47.160;8.120;2022-07-29T12:24:03;95844.28;;;26.98;51.79
46456;BME280;32154;47.160;8.120;2022-07-29T12:29:15;95844.72;;;26.71;51.71
46456;BME280;32154;47.160;8.120;2022-07-29T12:34:26;95845.47;;;26.48;52.93
46456;BME280;32154;47.160;8.120;2022-07-29T12:39:30;95842.91;;;26.53;54.33
46456;BME280;32154;47.160;8.120;2022-07-29T12:44:46;95847.19;;;26.18;53.06
46456;BME280;32154;47.160;8.120;2022-07-29T12:50:14;95844.78;;;26.41;55.20
46456;BME280;32154;47.160;8.120;2022-07-29T12:55:39;95844.31;;;26.13;57.32
46456;BME280;32154;47.160;8.120;2022-07-29T13:06:03;95864.66;;;25.85;63.35
46456;BME280;32154;47.160;8.120;2022-07-29T13:11:05;95860.47;;;25.52;61.16
46456;BME280;32154;47.160;8.120;2022-07-29T13:16:08;95858.59;;;24.90;62.04
46456;BME280;32154;47.160;8.120;2022-07-29T13:21:29;95861.06;;;24.66;61.98
46456;BME280;32154;47.160;8.120;2022-07-29T13:26:49;95868.31;;;24.40;59.55
46456;BME280;32154;47.160;8.120;2022-07-29T13:31:52;95888.16;;;24.13;62.22
46456;BME280;32154;47.160;8.120;2022-07-29T13:36:59;95917.56;;;23.56;65.34
46456;BME280;32154;47.160;8.120;2022-07-29T13:42:21;95930.25;;;22.88;71.07
46456;BME280;32154;47.160;8.120;2022-07-29T13:47:42;95970.19;;;22.15;72.10
46456;BME280;32154;47.160;8.120;2022-07-29T13:53:09;95959.00;;;21.28;73.09
46456;BME280;32154;47.160;8.120;2022-07-29T13:58:18;95927.59;;;21.22;74.91
46456;BME280;32154;47.160;8.120;2022-07-29T14:03:39;95938.53;;;21.55;76.31
46456;BME280;32154;47.160;8.120;2022-07-29T14:09:05;95942.03;;;21.91;74.10
46456;BME280;32154;47.160;8.120;2022-07-29T14:14:07;95945.59;;;22.05;74.00
46456;BME280;32154;47.160;8.120;2022-07-29T14:19:10;95966.84;;;22.07;74.50
46456;BME280;32154;47.160;8.120;2022-07-29T14:24:31;95958.69;;;22.28;74.07
46456;BME280;32154;47.160;8.120;2022-07-29T14:29:37;95960.78;;;22.40;74.35
46456;BME280;32154;47.160;8.120;2022-07-29T14:34:40;95975.44;;;22.37;73.57
46456;BME280;32154;47.160;8.120;2022-07-29T14:40:03;95981.13;;;22.76;75.19
46456;BME280;32154;47.160;8.120;2022-07-29T14:45:07;95981.53;;;22.73;74.39
46456;BME280;32154;47.160;8.120;2022-07-29T14:50:28;95987.84;;;22.45;73.21
46456;BME280;32154;47.160;8.120;2022-07-29T14:55:33;95990.81;;;22.64;74.60
46456;BME280;32154;47.160;8.120;2022-07-29T15:00:54;95999.72;;;22.78;74.16
46456;BME280;32154;47.160;8.120;2022-07-29T15:05:57;96013.59;;;22.88;72.44
46456;BME280;32154;47.160;8.120;2022-07-29T15:11:18;96009.25;;;22.94;72.44
46456;BME280;32154;47.160;8.120;2022-07-29T15:16:20;96008.63;;;22.78;72.29
46456;BME280;32154;47.160;8.120;2022-07-29T15:21:24;96008.81;;;22.77;72.86
46456;BME280;32154;47.160;8.120;2022-07-29T15:26:27;96015.25;;;22.96;73.27
46456;BME280;32154;47.160;8.120;2022-07-29T15:31:29;96012.53;;;22.76;71.49
46456;BME280;32154;47.160;8.120;2022-07-29T15:36:51;96006.19;;;23.04;71.75
46456;BME280;32154;47.160;8.120;2022-07-29T15:42:13;96010.53;;;22.98;70.94
46456;BME280;32154;47.160;8.120;2022-07-29T15:47:39;96000.13;;;22.68;71.55
46456;BME280;32154;47.160;8.120;2022-07-29T15:53:03;96012.50;;;22.55;71.27
46456;BME280;32154;47.160;8.120;2022-07-29T15:58:24;96013.06;;;22.44;70.89
46456;BME280;32154;47.160;8.120;2022-07-29T16:03:26;96009.75;;;22.42;69.17
46456;BME280;32154;47.160;8.120;2022-07-29T16:08:47;95993.69;;;22.00;68.02
46456;BME280;32154;47.160;8.120;2022-07-29T16:13:49;96000.09;;;22.06;67.54
46456;BME280;32154;47.160;8.120;2022-07-29T16:19:10;95998.25;;;21.99;69.61
46456;BME280;32154;47.160;8.120;2022-07-29T16:24:13;95991.66;;;22.15;70.13
46456;BME280;32154;47.160;8.120;2022-07-29T16:29:33;95985.03;;;22.04;70.69
46456;BME280;32154;47.160;8.120;2022-07-29T16:34:54;95987.34;;;21.72;68.44
46456;BME280;32154;47.160;8.120;2022-07-29T16:40:15;95977.84;;;21.70;68.93
46456;BME280;32154;47.160;8.120;2022-07-29T16:45:39;95983.94;;;21.92;70.48
46456;BME280;32154;47.160;8.120;2022-07-29T16:51:06;95980.88;;;22.02;69.87
46456;BME280;32154;47.160;8.120;2022-07-29T16:56:09;95985.44;;;22.01;69.39
46456;BME280;32154;47.160;8.120;2022-07-29T17:01:13;95978.50;;;22.27;69.14
46456;BME280;32154;47.160;8.120;2022-07-29T17:06:16;95984.28;;;22.24;66.81
46456;BME280;32154;47.160;8.120;2022-07-29T17:11:37;95975.19;;;22.18;63.87
46456;BME280;32154;47.160;8.120;2022-07-29T17:16:57;95979.34;;;22.35;65.28
46456;BME280;32154;47.160;8.120;2022-07-29T17:22:21;95978.06;;;22.17;65.53
46456;BME280;32154;47.160;8.120;2022-07-29T17:27:23;95984.00;;;22.06;65.66
46456;BME280;32154;47.160;8.120;2022-07-29T17:32:45;95971.19;;;22.08;64.29
46456;BME280;32154;47.160;8.120;2022-07-29T17:37:47;95969.38;;;22.15;67.71
46456;BME280;32154;47.160;8.120;2022-07-29T17:42:50;95966.81;;;21.93;67.96
46456;BME280;32154;47.160;8.120;2022-07-29T17:48:10;95967.88;;;22.06;68.08
46456;BME280;32154;47.160;8.120;2022-07-29T17:53:13;95967.69;;;22.00;67.68
46456;BME280;32154;47.160;8.120;2022-07-29T17:58:17;95970.78;;;22.04;67.82
46456;BME280;32154;47.160;8.120;2022-07-29T18:03:38;95972.25;;;22.13;68.30
46456;BME280;32154;47.160;8.120;2022-07-29T18:08:40;95972.94;;;22.29;65.92
46456;BME280;32154;47.160;8.120;2022-07-29T18:14:01;95990.91;;;22.35;67.12
46456;BME280;32154;47.160;8.120;2022-07-29T18:19:04;95983.63;;;22.22;66.00
46456;BME280;32154;47.160;8.120;2022-07-29T18:24:25;95995.56;;;21.99;67.28
46456;BME280;32154;47.160;8.120;2022-07-29T18:29:28;96005.31;;;21.72;70.07
46456;BME280;32154;47.160;8.120;2022-07-29T18:34:32;96006.06;;;21.66;70.78
46456;BME280;32154;47.160;8.120;2022-07-29T18:39:34;96009.44;;;21.68;71.64
46456;BME280;32154;47.160;8.120;2022-07-29T18:44:37;96008.47;;;21.54;72.00
46456;BME280;32154;47.160;8.120;2022-07-29T18:50:09;96014.81;;;21.46;71.60
46456;BME280;32154;47.160;8.120;2022-07-29T18:55:30;96017.81;;;21.65;71.74
46456;BME280;32154;47.160;8.120;2022-07-29T19:00:50;96018.03;;;21.63;71.41
46456;BME280;32154;47.160;8.120;2022-07-29T19:05:53;96021.84;;;21.47;71.35
46456;BME280;32154;47.160;8.120;2022-07-29T19:11:14;96026.63;;;21.52;71.00
46456;BME280;32154;47.160;8.120;2022-07-29T19:16:34;96026.22;;;21.26;70.34
46456;BME280;32154;47.160;8.120;2022-07-29T19:21:38;96041.50;;;20.67;71.96
46456;BME280;32154;47.160;8.120;2022-07-29T19:26:40;96036.31;;;20.59;72.54
46456;BME280;32154;47.160;8.120;2022-07-29T19:31:42;96043.09;;;20.40;73.57
46456;BME280;32154;47.160;8.120;2022-07-29T19:37:03;96048.97;;;20.50;72.90
46456;BME280;32154;47.160;8.120;2022-07-29T19:42:05;96055.63;;;20.54;73.36
46456;BME280;32154;47.160;8.120;2022-07-29T19:47:25;96044.84;;;20.32;72.75
46456;BME280;32154;47.160;8.120;2022-07-29T19:52:28;96055.13;;;20.14;73.39
46456;BME280;32154;47.160;8.120;2022-07-29T19:57:31;96056.19;;;20.34;73.39
46456;BME280;32154;47.160;8.120;2022-07-29T20:03:00;96069.25;;;20.22;74.28
46456;BME280;32154;47.160;8.120;2022-07-29T20:08:21;96063.13;;;20.29;74.37
46456;BME280;32154;47.160;8.120;2022-07-29T20:13:23;96068.06;;;20.10;73.83
46456;BME280;32154;47.160;8.120;2022-07-29T20:18:26;96063.03;;;19.92;73.22
46456;BME280;32154;47.160;8.120;2022-07-29T20:23:47;96070.09;;;19.93;72.90
46456;BME280;32154;47.160;8.120;2022-07-29T20:29:09;96067.13;;;20.03;73.42
46456;BME280;32154;47.160;8.120;2022-07-29T20:34:12;96064.66;;;20.01;72.15
46456;BME280;32154;47.160;8.120;2022-07-29T20:39:14;96058.84;;;19.98;72.35
46456;BME280;32154;47.160;8.120;2022-07-29T20:44:16;96061.19;;;19.77;72.63
46456;BME280;32154;47.160;8.120;2022-07-29T20:49:37;96055.09;;;19.84;73.07
46456;BME280;32154;47.160;8.120;2022-07-29T20:54:58;96049.28;;;19.80;73.05
46456;BME280;32154;47.160;8.120;2022-07-29T21:00:00;96047.16;;;19.75;73.32
46456;BME280;32154;47.160;8.120;2022-07-29T21:05:04;96049.50;;;19.78;72.88
46456;BME280;32154;47.160;8.120;2022-07-29T21:10:26;96055.31;;;19.82;72.77
46456;BME280;32154;47.160;8.120;2022-07-29T21:15:29;96053.81;;;19.79;71.81
46456;BME280;32154;47.160;8.120;2022-07-29T21:20:58;96060.09;;;19.72;73.08
46456;BME280;32154;47.160;8.120;2022-07-29T21:26:02;96058.59;;;19.69;71.56
46456;BME280;32154;47.160;8.120;2022-07-29T21:31:14;96061.81;;;19.64;71.99
46456;BME280;32154;47.160;8.120;2022-07-29T21:36:17;96071.94;;;19.54;71.57
46456;BME280;32154;47.160;8.120;2022-07-29T21:41:57;96064.94;;;19.53;71.99
46456;BME280;32154;47.160;8.120;2022-07-29T21:47:00;96050.63;;;19.31;71.72
46456;BME280;32154;47.160;8.120;2022-07-29T21:52:03;96047.63;;;19.26;71.75
46456;BME280;32154;47.160;8.120;2022-07-29T21:57:25;96056.53;;;19.41;72.06
46456;BME280;32154;47.160;8.120;2022-07-29T22:02:27;96059.31;;;19.48;71.15
46456;BME280;32154;47.160;8.120;2022-07-29T22:07:29;96059.00;;;19.28;71.61
46456;BME280;32154;47.160;8.120;2022-07-29T22:12:53;96051.06;;;19.19;71.92
46456;BME280;32154;47.160;8.120;2022-07-29T22:17:55;96055.44;;;19.12;71.80
46456;BME280;32154;47.160;8.120;2022-07-29T22:22:58;96055.16;;;19.07;70.87
46456;BME280;32154;47.160;8.120;2022-07-29T22:28:19;96056.34;;;19.28;70.39
46456;BME280;32154;47.160;8.120;2022-07-29T22:33:22;96057.69;;;19.23;71.27
46456;BME280;32154;47.160;8.120;2022-07-29T22:38:24;96056.69;;;19.24;72.50
46456;BME280;32154;47.160;8.120;2022-07-29T22:43:26;96052.38;;;19.38;72.25
46456;BME280;32154;47.160;8.120;2022-07-29T22:48:47;96053.94;;;19.33;72.56
46456;BME280;32154;47.160;8.120;2022-07-29T22:53:50;96068.06;;;19.42;72.91
46456;BME280;32154;47.160;8.120;2022-07-29T22:58:52;96058.56;;;19.39;73.14
46456;BME280;32154;47.160;8.120;2022-07-29T23:03:55;96055.91;;;19.39;73.95
46456;BME280;32154;47.160;8.120;2022-07-29T23:09:17;96059.66;;;19.98;70.22
46456;BME280;32154;47.160;8.120;2022-07-29T23:14:19;96054.03;;;19.93;71.76
46456;BME280;32154;47.160;8.120;2022-07-29T23:19:40;96060.66;;;20.12;70.55
46456;BME280;32154;47.160;8.120;2022-07-29T23:24:42;96065.38;;;20.25;70.17
46456;BME280;32154;47.160;8.120;2022-07-29T23:30:03;96066.44;;;20.46;70.41
46456;BME280;32154;47.160;8.120;2022-07-29T23:35:06;96066.56;;;20.59;69.34
46456;BME280;32154;47.160;8.120;2022-07-29T23:40:09;96066.03;;;20.49;70.18
46456;BME280;32154;47.160;8.120;2022-07-29T23:45:34;96064.78;;;20.30;71.27
46456;BME280;32154;47.160;8.120;2022-07-29T23:51:04;96064.44;;;20.18;71.76
46456;BME280;32154;47.160;8.120;2022-07-29T23:56:06;96065.06;;;20.35;72.49
